createdAt,value
2023-03-25T00:00:47.321Z,100503.19
2023-03-25T00:05:50.212Z,100503.56
2023-03-25T00:10:55.208Z,100503.97
2023-03-25T00:15:58.241Z,100494.22
2023-03-25T00:20:57.666Z,100484.78
2023-03-25T00:26:00.660Z,100473.44
2023-03-25T00:31:01.656Z,100469.44
2023-03-25T00:36:00.840Z,100469.94
2023-03-25T00:41:09.696Z,100463.09
2023-03-25T00:46:08.568Z,100454.84
2023-03-25T00:51:10.201Z,100448.69
2023-03-25T00:56:10.777Z,100460.56
2023-03-25T01:01:13.362Z,100446.72
2023-03-25T01:06:12.958Z,100447.50
2023-03-25T01:11:21.749Z,100448.84
2023-03-25T01:16:22.292Z,100436.75
2023-03-25T01:21:21.416Z,100438.19
2023-03-25T01:26:21.646Z,100442.06
2023-03-25T01:31:23.141Z,100443.56
2023-03-25T01:36:24.733Z,100441.84
2023-03-25T01:41:25.808Z,100431.91
2023-03-25T01:46:26.442Z,100433.84
2023-03-25T01:51:30.189Z,100423.44
2023-03-25T01:56:34.484Z,100409.84
2023-03-25T02:01:35.122Z,100415.03
2023-03-25T02:06:39.944Z,100406.16
2023-03-25T02:11:40.688Z,100394.13
2023-03-25T02:16:49.837Z,100382.69
2023-03-25T02:22:25.914Z,100376.44
2023-03-25T02:27:42.091Z,100365.56
2023-03-25T02:32:59.438Z,100376.56
2023-03-25T02:38:28.863Z,100368.63
2023-03-25T02:43:34.154Z,100377.22
2023-03-25T02:48:38.165Z,100372.25
2023-03-25T02:53:40.411Z,100364.97
2023-03-25T02:58:41.908Z,100357.16
2023-03-25T03:03:41.009Z,100351.63
2023-03-25T03:08:54.556Z,100358.09
2023-03-25T03:14:11.042Z,100344.25
2023-03-25T03:19:24.323Z,100343.41
2023-03-25T03:24:27.172Z,100348.16
2023-03-25T03:29:30.574Z,100346.78
2023-03-25T03:34:34.637Z,100348.47
2023-03-25T03:39:37.829Z,100342.53
2023-03-25T03:44:38.520Z,100344.69
2023-03-25T03:49:40.675Z,100336.00
2023-03-25T03:54:46.724Z,100340.75
2023-03-25T03:59:51.278Z,100342.63
2023-03-25T04:04:50.233Z,100349.28
2023-03-25T04:10:02.869Z,100358.56
2023-03-25T04:15:03.231Z,100347.50
2023-03-25T04:20:07.262Z,100351.38
2023-03-25T04:25:08.951Z,100344.78
2023-03-25T04:30:10.075Z,100362.31
2023-03-25T04:35:09.629Z,100371.44
2023-03-25T04:40:13.824Z,100371.94
2023-03-25T04:45:16.916Z,100368.75
2023-03-25T04:50:22.311Z,100364.00
2023-03-25T04:55:23.003Z,100374.31
2023-03-25T05:00:24.277Z,100374.44
2023-03-25T05:05:24.821Z,100375.06
2023-03-25T05:10:29.680Z,100380.34
2023-03-25T05:15:30.621Z,100374.69
2023-03-25T05:20:29.506Z,100377.66
2023-03-25T05:25:34.188Z,100374.63
2023-03-25T05:30:33.974Z,100378.00
2023-03-25T05:35:32.989Z,100376.03
2023-03-25T05:40:33.894Z,100380.06
2023-03-25T05:45:32.803Z,100369.38
2023-03-25T05:50:32.123Z,100382.13
2023-03-25T05:55:33.178Z,100372.09
2023-03-25T06:00:37.802Z,100383.19
2023-03-25T06:05:36.715Z,100372.03
2023-03-25T06:10:36.997Z,100370.44
2023-03-25T06:15:39.503Z,100368.78
2023-03-25T06:20:38.481Z,100369.63
2023-03-25T06:25:38.797Z,100378.38
2023-03-25T06:30:38.591Z,100386.97
2023-03-25T06:35:37.758Z,100383.59
2023-03-25T06:40:40.467Z,100385.66
2023-03-25T06:45:44.579Z,100394.44
2023-03-25T06:51:06.503Z,100384.63
2023-03-25T06:56:09.530Z,100388.94
2023-03-25T07:01:11.889Z,100390.09
2023-03-25T07:06:20.348Z,100389.56
2023-03-25T07:11:26.406Z,100386.34
2023-03-25T07:16:29.013Z,100379.66
2023-03-25T07:21:28.890Z,100381.56
2023-03-25T07:26:29.191Z,100384.19
2023-03-25T07:31:28.194Z,100385.41
2023-03-25T07:36:27.138Z,100393.63
2023-03-25T07:41:25.960Z,100387.19
2023-03-25T07:46:47.354Z,100388.41
2023-03-25T07:51:46.952Z,100397.72
2023-03-25T07:56:46.136Z,100397.53
2023-03-25T08:01:46.659Z,100398.88
2023-03-25T08:06:46.134Z,100384.56
2023-03-25T08:11:45.123Z,100389.63
2023-03-25T08:16:44.212Z,100389.91
2023-03-25T08:21:44.541Z,100382.03
2023-03-25T08:26:43.827Z,100368.78
2023-03-25T08:31:47.027Z,100362.97
2023-03-25T08:36:47.542Z,100369.94
2023-03-25T08:41:46.529Z,100357.94
2023-03-25T08:46:45.489Z,100354.63
2023-03-25T08:51:44.548Z,100342.22
2023-03-25T08:56:45.064Z,100328.03
2023-03-25T09:01:44.725Z,100337.56
2023-03-25T09:06:47.633Z,100337.66
2023-03-25T09:11:48.806Z,100329.91
2023-03-25T09:16:47.753Z,100320.59
2023-03-25T09:21:46.632Z,100324.44
2023-03-25T09:26:46.280Z,100308.50
2023-03-25T09:31:46.707Z,100309.78
2023-03-25T09:36:47.592Z,100299.78
2023-03-25T09:42:13.555Z,100297.78
2023-03-25T09:47:15.972Z,100289.53
2023-03-25T09:52:19.972Z,100288.84
2023-03-25T09:57:23.802Z,100284.03
2023-03-25T10:02:34.823Z,100286.84
2023-03-25T10:07:54.220Z,100276.94
2023-03-25T10:13:03.050Z,100280.06
2023-03-25T10:18:22.613Z,100277.78
2023-03-25T10:23:30.805Z,100257.13
2023-03-25T10:28:35.202Z,100265.22
2023-03-25T10:33:38.614Z,100257.03
2023-03-25T10:38:39.958Z,100252.94
2023-03-25T10:43:41.741Z,100243.97
2023-03-25T10:48:42.202Z,100244.03
2023-03-25T10:53:43.059Z,100245.06
2023-03-25T10:58:45.445Z,100234.97
2023-03-25T11:03:49.317Z,100214.25
2023-03-25T11:08:59.719Z,100210.63
2023-03-25T11:13:58.944Z,100200.53
2023-03-25T11:19:04.249Z,100188.00
2023-03-25T11:24:03.992Z,100183.31
2023-03-25T11:29:09.664Z,100175.00
2023-03-25T11:34:22.991Z,100155.59
2023-03-25T11:39:30.558Z,100155.19
2023-03-25T11:44:31.924Z,100147.50
2023-03-25T11:49:38.722Z,100146.22
2023-03-25T11:54:39.514Z,100148.44
2023-03-25T11:59:44.691Z,100135.06
2023-03-25T12:04:59.163Z,100133.88
2023-03-25T12:10:05.530Z,100138.31
2023-03-25T12:15:18.406Z,100125.28
2023-03-25T12:20:30.403Z,100116.34
2023-03-25T12:25:43.513Z,100118.22
2023-03-25T12:30:55.351Z,100100.00
2023-03-25T12:36:11.303Z,100108.16
2023-03-25T12:41:24.712Z,100099.34
2023-03-25T12:46:40.540Z,100105.00
2023-03-25T12:51:51.805Z,100079.44
2023-03-25T12:57:02.407Z,100071.53
2023-03-25T13:02:21.629Z,100071.94
2023-03-25T13:07:28.042Z,100072.78
2023-03-25T13:12:33.919Z,100063.59
2023-03-25T13:23:57.241Z,100057.13
2023-03-25T13:29:06.035Z,100051.59
2023-03-25T13:34:26.983Z,100063.81
2023-03-25T13:39:38.479Z,100057.97
2023-03-25T13:44:44.066Z,100051.53
2023-03-25T13:49:52.752Z,100050.91
2023-03-25T13:55:01.952Z,100032.63
2023-03-25T14:00:21.781Z,100043.06
2023-03-25T14:06:08.511Z,100040.78
2023-03-25T14:11:28.775Z,100046.31
2023-03-25T14:16:39.592Z,100047.34
2023-03-25T14:21:49.274Z,100048.13
2023-03-25T14:27:22.748Z,100033.34
2023-03-25T14:32:52.841Z,100041.59
2023-03-25T14:38:15.502Z,100032.03
2023-03-25T14:43:31.044Z,100027.75
2023-03-25T14:48:38.196Z,100025.00
2023-03-25T14:53:43.457Z,100017.78
2023-03-25T14:58:56.729Z,100023.84
2023-03-25T15:04:27.186Z,100020.09
2023-03-25T15:09:31.028Z,100012.28
2023-03-25T15:14:37.213Z,100019.44
2023-03-25T15:20:11.248Z,100007.56
2023-03-25T15:25:19.120Z,100019.09
2023-03-25T15:30:54.844Z,100008.03
2023-03-25T15:36:19.332Z,100016.81
2023-03-25T15:42:05.529Z,100010.91
2023-03-25T15:47:31.831Z,100004.66
2023-03-25T15:53:02.645Z,100001.72
2023-03-25T15:58:18.239Z,100008.31
2023-03-25T16:03:22.523Z,100009.19
2023-03-25T16:08:28.608Z,100008.47
2023-03-25T16:13:27.642Z,100004.13
2023-03-25T16:18:32.545Z,100006.81
2023-03-25T16:23:32.056Z,100009.09
2023-03-25T16:28:34.222Z,100010.34
2023-03-25T16:33:38.959Z,100017.69
2023-03-25T16:38:37.910Z,100023.03
2023-03-25T16:43:37.120Z,100019.56
2023-03-25T16:48:39.774Z,100020.13
2023-03-25T16:53:41.180Z,100020.16
2023-03-25T16:59:06.500Z,100018.09
2023-03-25T17:04:18.989Z,100024.00
2023-03-25T17:09:21.040Z,100026.84
2023-03-25T17:14:22.600Z,100020.84
2023-03-25T17:19:24.786Z,100016.88
2023-03-25T17:24:25.197Z,100021.66
2023-03-25T17:29:24.122Z,100011.09
2023-03-25T17:34:25.481Z,100027.59
2023-03-25T17:39:27.425Z,100028.78
2023-03-25T17:44:27.151Z,100012.59
2023-03-25T17:49:27.377Z,100017.59
2023-03-25T17:54:26.409Z,100015.13
2023-03-25T17:59:26.892Z,100006.25
2023-03-25T18:04:27.114Z,100003.94
2023-03-25T18:09:26.457Z,99997.09
2023-03-25T18:14:28.525Z,100000.41
2023-03-25T18:19:32.257Z,100012.25
2023-03-25T18:24:31.247Z,100003.03
2023-03-25T18:29:30.052Z,100001.03
2023-03-25T18:34:30.222Z,99996.94
2023-03-25T18:39:29.422Z,100002.75
2023-03-25T18:44:30.809Z,99998.44
2023-03-25T18:49:31.116Z,99999.19
2023-03-25T18:54:29.905Z,99998.16
2023-03-25T18:59:29.502Z,100012.84
2023-03-25T19:04:29.632Z,100011.25
2023-03-25T19:09:32.079Z,100010.69
2023-03-25T19:14:31.207Z,100006.94
2023-03-25T19:19:29.967Z,100023.19
2023-03-25T19:24:30.025Z,100009.59
2023-03-25T19:29:29.474Z,100028.38
2023-03-25T19:34:28.390Z,100017.97
2023-03-25T19:39:27.253Z,100030.19
2023-03-25T19:44:27.519Z,100021.34
2023-03-25T19:49:39.301Z,100027.00
2023-03-25T19:54:38.951Z,100026.44
2023-03-25T19:59:39.308Z,100024.25
2023-03-25T20:04:38.286Z,100026.78
2023-03-25T20:09:37.303Z,100028.59
2023-03-25T20:14:36.087Z,100033.91
2023-03-25T20:19:36.853Z,100034.09
2023-03-25T20:24:35.601Z,100033.41
2023-03-25T20:29:35.419Z,100019.38
2023-03-25T20:34:38.192Z,100032.28
2023-03-25T20:39:36.994Z,100025.97
2023-03-25T20:44:35.883Z,100024.59
2023-03-25T20:49:37.995Z,100028.91
2023-03-25T20:54:37.396Z,100027.41
2023-03-25T20:59:36.196Z,100027.38
2023-03-25T21:04:36.965Z,100024.72
2023-03-25T21:09:36.068Z,100018.91
2023-03-25T21:14:38.261Z,100025.38
2023-03-25T21:19:40.244Z,100026.94
2023-03-25T21:24:39.296Z,100027.94
2023-03-25T21:29:38.193Z,100020.19
2023-03-25T21:34:40.678Z,100030.28
2023-03-25T21:39:39.542Z,100032.59
2023-03-25T21:44:38.437Z,100027.16
2023-03-25T21:49:38.729Z,100029.84
2023-03-25T21:54:37.493Z,100032.69
2023-03-25T21:59:36.305Z,100041.25
2023-03-25T22:04:35.116Z,100050.28
2023-03-25T22:09:35.532Z,100054.50
2023-03-25T22:14:34.748Z,100061.53
2023-03-25T22:19:33.798Z,100062.63
2023-03-25T22:24:32.717Z,100057.78
2023-03-25T22:29:33.719Z,100072.53
2023-03-25T22:39:50.431Z,100079.03
2023-03-25T22:44:50.603Z,100080.28
2023-03-25T22:49:49.393Z,100085.16
2023-03-25T22:54:48.115Z,100098.16
2023-03-25T22:59:46.837Z,100119.94
2023-03-25T23:04:47.140Z,100121.66
2023-03-25T23:09:47.641Z,100127.31
2023-03-25T23:14:50.782Z,100153.50
2023-03-25T23:19:52.395Z,100154.91
2023-03-25T23:24:51.082Z,100163.13
2023-03-25T23:29:49.787Z,100162.00
2023-03-25T23:34:48.696Z,100162.00
2023-03-25T23:39:48.784Z,100167.81
2023-03-25T23:44:48.711Z,100162.63
2023-03-25T23:49:47.524Z,100158.41
2023-03-25T23:54:47.496Z,100141.66
2023-03-25T23:59:47.677Z,100140.88
